Time;durP1;ratioP1;P1;durP2;ratioP2;P2;SDS_P1;SDS_P2;PMS_P1;PMS_P2;Temp;Humidity;BMP_temperature;BMP_pressure;BME280_temperature;BME280_humidity;BME280_pressure;Samples;Min_cycle;Max_cycle;Signal;HPM_P1;HPM_P2
2022/09/08 00:02:18;;;;;;;2.50;2.30;;;;;;;18.37;73.77;100285.56;5030299;28;20227;-86
2022/09/08 00:04:45;;;;;;;2.80;2.60;;;;;;;18.34;73.83;100285.88;5029686;28;20583;-86
2022/09/08 00:07:11;;;;;;;2.80;2.60;;;;;;;18.31;73.97;100282.63;5031812;28;20216;-86
2022/09/08 00:09:39;;;;;;;2.20;2.00;;;;;;;18.26;73.94;100285.81;5026742;28;20227;-85
2022/09/08 00:12:06;;;;;;;2.93;2.20;;;;;;;18.21;73.65;100279.19;5029720;28;21810;-85
2022/09/08 00:14:33;;;;;;;5.07;2.60;;;;;;;18.13;73.69;100279.94;5035778;28;20578;-86
2022/09/08 00:17:00;;;;;;;3.07;2.80;;;;;;;18.07;73.92;100282.44;5032712;28;20203;-84
2022/09/08 00:19:27;;;;;;;3.40;3.10;;;;;;;18.00;74.35;100288.44;5038447;28;20253;-86
2022/09/08 00:21:53;;;;;;;5.13;3.17;;;;;;;17.93;74.56;100276.56;5035615;28;20729;-86
2022/09/08 00:24:20;;;;;;;4.70;3.40;;;;;;;17.87;75.17;100265.56;5032560;28;20211;-85
2022/09/08 00:26:48;;;;;;;3.83;3.53;;;;;;;17.79;74.90;100263.63;5032526;28;20218;-85
2022/09/08 00:29:14;;;;;;;5.17;3.10;;;;;;;17.71;74.99;100254.63;5025798;28;20230;-85
2022/09/08 00:31:42;;;;;;;3.83;3.50;;;;;;;17.60;75.27;100253.78;5037677;28;20213;-84
2022/09/08 00:34:09;;;;;;;3.77;3.37;;;;;;;17.53;75.71;100252.72;5033020;28;20219;-85
2022/09/08 00:36:35;;;;;;;5.27;3.27;;;;;;;17.48;75.97;100251.47;5033169;28;20218;-85
2022/09/08 00:39:02;;;;;;;3.80;3.50;;;;;;;17.45;76.38;100247.22;5035160;28;20236;-85
2022/09/08 00:41:29;;;;;;;4.30;3.90;;;;;;;17.45;77.03;100252.63;5029725;28;20237;-85
2022/09/08 00:44:00;;;;;;;6.20;4.20;;;;;;;17.46;77.39;100245.38;5032933;28;20765;-85
2022/09/08 00:46:32;;;;;;;5.80;4.47;;;;;;;17.48;77.77;100240.69;5036338;28;20200;-86
2022/09/08 00:49:04;;;;;;;5.57;5.10;;;;;;;17.48;77.93;100246.09;5030479;28;20233;-86
2022/09/08 00:51:32;;;;;;;4.73;4.20;;;;;;;17.47;78.50;100241.69;5032520;28;20634;-86
2022/09/08 00:54:00;;;;;;;5.30;4.83;;;;;;;17.48;78.86;100238.84;5040697;28;20221;-86
2022/09/08 00:56:29;;;;;;;5.67;5.23;;;;;;;17.48;79.05;100244.25;5031480;28;20805;-85
2022/09/08 00:58:59;;;;;;;5.83;5.27;;;;;;;17.46;79.31;100235.47;5024807;28;20616;-85
2022/09/08 01:01:25;;;;;;;7.10;6.27;;;;;;;17.43;79.67;100232.22;5030248;28;21035;-85
2022/09/08 01:03:52;;;;;;;6.20;5.70;;;;;;;17.40;79.79;100225.28;5031446;28;20246;-85
2022/09/08 01:15:11;;;;;;;6.43;4.90;;;;;;;17.16;80.40;100214.25;5028908;28;20217;-84
2022/09/08 01:17:38;;;;;;;6.10;5.53;;;;;;;17.14;80.88;100214.41;5029639;28;20213;-85
2022/09/08 01:20:07;;;;;;;7.67;5.67;;;;;;;17.15;81.07;100223.34;5029929;28;20225;-85
2022/09/08 01:22:59;;;;;;;6.07;5.50;;;;;;;17.14;81.17;100221.63;5030458;28;20258;-85
2022/09/08 01:25:43;;;;;;;9.13;6.30;;;;;;;17.12;81.36;100216.41;5022885;28;20672;-85
2022/09/08 01:28:17;;;;;;;6.23;5.70;;;;;;;17.11;81.48;100212.00;5029848;28;20606;-85
2022/09/08 01:30:46;;;;;;;7.43;6.67;;;;;;;17.10;81.88;100217.53;5031671;28;21710;-85
2022/09/08 01:33:15;;;;;;;6.70;6.17;;;;;;;17.08;82.20;100215.00;5029975;28;20652;-85
2022/09/08 01:35:43;;;;;;;6.70;6.10;;;;;;;17.10;82.39;100218.38;5030730;28;20582;-85
2022/09/08 01:38:11;;;;;;;6.20;5.60;;;;;;;17.11;82.48;100222.78;5030693;28;20292;-85
2022/09/08 01:40:38;;;;;;;6.20;5.60;;;;;;;17.09;82.23;100214.00;5030078;28;20780;-85
2022/09/08 01:43:06;;;;;;;5.93;5.17;;;;;;;17.08;82.49;100209.63;5029263;28;20229;-86
2022/09/08 01:45:33;;;;;;;6.77;6.07;;;;;;;17.06;82.34;100198.16;5028514;28;20247;-85
2022/09/08 01:48:00;;;;;;;10.00;6.07;;;;;;;17.04;82.08;100200.13;5032249;28;20222;-85
2022/09/08 01:50:26;;;;;;;6.63;5.77;;;;;;;17.00;82.17;100191.53;5032185;28;20221;-86
2022/09/08 01:52:53;;;;;;;6.33;5.80;;;;;;;16.98;82.39;100193.53;5033667;28;20679;-85
2022/09/08 01:55:20;;;;;;;6.53;5.77;;;;;;;16.95;82.38;100185.75;5033111;28;20573;-85
2022/09/08 01:57:46;;;;;;;6.70;6.10;;;;;;;16.91;82.17;100183.50;5028630;28;20200;-85
2022/09/08 02:00:13;;;;;;;6.27;5.67;;;;;;;16.87;82.10;100185.66;5030491;28;20232;-83
2022/09/08 02:02:41;;;;;;;6.73;5.93;;;;;;;16.86;82.32;100188.47;5031093;28;20231;-83
2022/09/08 02:05:08;;;;;;;6.13;5.53;;;;;;;16.84;82.25;100190.50;5032693;28;20621;-83
2022/09/08 02:07:37;;;;;;;7.03;6.03;;;;;;;16.82;82.50;100189.78;5025005;28;20211;-83
2022/09/08 02:10:05;;;;;;;6.00;5.40;;;;;;;16.82;82.46;100187.09;5030646;28;20254;-84
2022/09/08 02:12:31;;;;;;;6.50;5.13;;;;;;;16.82;82.42;100181.72;5031719;28;20607;-84
2022/09/08 02:14:58;;;;;;;7.77;6.23;;;;;;;16.82;82.47;100181.72;5034538;28;20290;-84
2022/09/08 02:17:25;;;;;;;7.67;6.87;;;;;;;16.82;82.70;100173.66;5032092;28;20212;-84
2022/09/08 02:19:52;;;;;;;7.03;6.47;;;;;;;16.82;82.64;100170.97;5032230;28;20222;-85
2022/09/08 02:22:19;;;;;;;7.17;6.53;;;;;;;16.82;82.65;100166.44;5032125;28;20208;-83
2022/09/08 02:24:45;;;;;;;6.47;5.87;;;;;;;16.81;82.38;100166.59;5031727;28;20688;-84
2022/09/08 02:27:12;;;;;;;7.33;6.20;;;;;;;16.78;82.09;100164.19;5038273;28;20216;-84
2022/09/08 02:29:38;;;;;;;6.50;5.80;;;;;;;16.76;81.93;100160.78;5031204;28;20268;-84
2022/09/08 02:32:05;;;;;;;7.47;6.23;;;;;;;16.70;81.79;100161.38;5031682;28;20271;-84
2022/09/08 02:34:32;;;;;;;8.13;6.80;;;;;;;16.66;81.28;100164.34;5043729;28;20207;-84
2022/09/08 02:37:00;;;;;;;7.13;6.30;;;;;;;16.60;81.07;100169.47;5031963;28;20681;-84
2022/09/08 02:39:26;;;;;;;6.30;5.77;;;;;;;16.51;80.49;100165.81;5031791;28;20227;-84
2022/09/08 02:41:53;;;;;;;6.63;6.07;;;;;;;16.44;80.37;100167.41;5029460;28;20657;-84
2022/09/08 02:44:20;;;;;;;7.63;6.93;;;;;;;16.36;80.10;100155.66;5031243;28;20292;-84
2022/09/08 02:46:47;;;;;;;7.93;7.13;;;;;;;16.29;80.05;100163.50;5025734;28;20664;-83
2022/09/08 02:49:14;;;;;;;8.90;8.00;;;;;;;16.24;80.47;100165.75;5029230;28;20219;-84
2022/09/08 02:51:40;;;;;;;8.37;7.57;;;;;;;16.18;80.74;100163.63;5032806;28;20201;-84
2022/09/08 02:54:08;;;;;;;8.40;7.60;;;;;;;16.15;81.10;100162.09;5033972;28;20200;-84
2022/09/08 02:56:35;;;;;;;8.27;7.57;;;;;;;16.14;81.51;100164.91;5030584;28;20213;-84
2022/09/08 02:59:01;;;;;;;8.63;7.70;;;;;;;16.12;81.81;100164.25;5031525;28;20238;-85
2022/09/08 03:01:28;;;;;;;8.70;7.90;;;;;;;16.12;82.51;100165.06;5031663;28;20203;-85
2022/09/08 03:03:54;;;;;;;9.07;8.17;;;;;;;16.12;82.60;100167.75;5032591;28;20235;-84
2022/09/08 03:06:21;;;;;;;8.87;8.07;;;;;;;16.12;82.83;100165.06;5032692;28;20214;-83
2022/09/08 03:08:47;;;;;;;8.73;7.93;;;;;;;16.13;83.03;100163.22;5032828;28;20657;-84
2022/09/08 03:11:15;;;;;;;9.03;8.23;;;;;;;16.12;83.26;100165.06;5032925;28;20232;-84
2022/09/08 03:13:42;;;;;;;8.70;7.90;;;;;;;16.09;83.16;100156.47;5032752;28;20199;-84
2022/09/08 03:16:09;;;;;;;9.17;8.27;;;;;;;16.05;83.08;100153.22;5033701;28;20207;-84
2022/09/08 03:18:35;;;;;;;9.90;8.90;;;;;;;16.03;83.29;100157.88;5033012;28;20210;-84
2022/09/08 03:21:04;;;;;;;9.60;8.23;;;;;;;16.00;83.41;100147.41;5033257;28;20231;-84
2022/09/08 03:23:32;;;;;;;8.67;7.97;;;;;;;15.99;84.10;100143.03;5021742;28;20234;-84
2022/09/08 03:26:02;;;;;;;9.97;9.03;;;;;;;16.00;84.58;100142.03;5033097;28;20195;-84
2022/09/08 03:28:30;;;;;;;10.47;9.47;;;;;;;16.01;84.61;100134.84;5027068;28;20203;-83
2022/09/08 03:30:56;;;;;;;11.30;10.10;;;;;;;16.02;84.67;100134.69;5013276;28;20231;-84
2022/09/08 03:33:23;;;;;;;11.70;10.60;;;;;;;16.03;85.05;100128.31;5023973;28;20202;-84
2022/09/08 03:35:49;;;;;;;12.73;11.63;;;;;;;16.03;85.17;100133.69;5032771;28;20214;-84
2022/09/08 03:38:16;;;;;;;11.80;10.60;;;;;;;16.04;85.29;100130.03;5033741;28;20576;-84
2022/09/08 03:40:43;;;;;;;11.27;10.17;;;;;;;16.04;85.41;100132.72;5031282;28;20229;-84
2022/09/08 03:43:11;;;;;;;10.87;9.77;;;;;;;16.03;85.23;100140.91;5033932;28;20317;-84
2022/09/08 03:45:44;;;;;;;10.93;9.80;;;;;;;15.98;85.19;100128.75;5033009;28;20202;-84
2022/09/08 03:48:11;;;;;;;11.10;10.10;;;;;;;15.95;85.41;100126.34;5040596;28;20202;-84
2022/09/08 03:50:37;;;;;;;11.30;10.30;;;;;;;15.93;85.78;100116.78;5038158;28;20252;-84
2022/09/08 03:53:04;;;;;;;10.47;9.37;;;;;;;15.93;85.85;100120.31;5037955;28;20198;-84
2022/09/08 03:55:31;;;;;;;10.30;9.40;;;;;;;15.92;85.74;100102.50;5037945;28;20230;-84
2022/09/08 03:57:58;;;;;;;11.80;10.60;;;;;;;15.91;85.77;100108.00;5029785;28;20657;-84
2022/09/08 04:00:25;;;;;;;12.17;11.10;;;;;;;15.88;85.50;100101.09;5037205;28;20242;-84
2022/09/08 04:02:53;;;;;;;11.67;10.47;;;;;;;15.86;86.02;100086.09;5029468;28;20571;-84
2022/09/08 04:05:20;;;;;;;11.40;10.30;;;;;;;15.86;86.26;100078.03;5037730;28;20217;-85
2022/09/08 04:07:46;;;;;;;12.27;11.20;;;;;;;15.86;86.58;100073.53;5036565;28;20198;-85
2022/09/08 04:10:13;;;;;;;11.70;10.60;;;;;;;15.87;86.68;100074.38;5045871;28;20233;-84
2022/09/08 04:12:40;;;;;;;11.27;10.27;;;;;;;15.86;86.65;100070.00;5040941;28;20708;-84
2022/09/08 04:15:08;;;;;;;13.50;12.20;;;;;;;15.83;86.26;100071.13;5036978;28;20209;-84
2022/09/08 04:17:36;;;;;;;15.23;13.57;;;;;;;15.83;86.83;100075.66;5035847;28;20214;-83
2022/09/08 04:20:05;;;;;;;14.60;13.10;;;;;;;15.82;86.92;100064.06;5036062;28;20234;-84
2022/09/08 04:22:31;;;;;;;15.00;13.50;;;;;;;15.82;86.83;100063.22;5028233;28;20681;-84
2022/09/08 04:24:58;;;;;;;13.77;12.33;;;;;;;15.80;87.13;100047.25;5030355;28;20235;-83
2022/09/08 04:27:25;;;;;;;12.80;11.50;;;;;;;15.79;86.93;100047.38;5035666;28;20409;-84
2022/09/08 04:29:51;;;;;;;13.20;11.90;;;;;;;15.78;87.16;100051.91;5028509;28;20277;-83
2022/09/08 04:32:18;;;;;;;13.90;12.60;;;;;;;15.77;87.23;100055.56;5033966;28;20431;-83
2022/09/08 04:34:44;;;;;;;14.47;13.07;;;;;;;15.76;87.79;100051.22;5036673;28;20213;-83
2022/09/08 04:37:13;;;;;;;15.83;14.23;;;;;;;15.77;88.04;100047.53;5030285;28;20293;-82
2022/09/08 04:39:39;;;;;;;17.00;15.30;;;;;;;15.79;88.33;100044.69;5030490;28;20294;-83
2022/09/08 04:42:06;;;;;;;16.23;14.63;;;;;;;15.80;88.56;100047.25;5028709;28;20301;-82
2022/09/08 04:44:33;;;;;;;16.70;13.73;;;;;;;15.82;88.92;100052.47;5040347;28;20268;-82
2022/09/08 04:46:59;;;;;;;16.00;14.50;;;;;;;15.84;89.07;100054.03;5041399;28;20220;-83
2022/09/08 04:49:26;;;;;;;17.07;15.37;;;;;;;15.86;89.49;100048.50;5045453;28;20223;-84
2022/09/08 04:51:52;;;;;;;20.17;16.37;;;;;;;15.86;89.55;100049.34;5041749;28;20216;-84
2022/09/08 04:54:22;;;;;;;20.13;16.97;;;;;;;15.88;89.75;100050.06;5034977;28;20222;-84
2022/09/08 04:56:49;;;;;;;20.60;17.20;;;;;;;15.90;90.18;100050.75;5035199;28;20280;-83
2022/09/08 04:59:15;;;;;;;27.00;18.33;;;;;;;15.93;90.65;100046.94;5033660;28;20223;-85
2022/09/08 05:01:42;;;;;;;23.37;19.60;;;;;;;15.94;90.85;100046.78;5038966;28;20198;-83
2022/09/08 05:04:09;;;;;;;22.87;19.23;;;;;;;15.95;91.18;100040.41;5030759;28;20233;-83
2022/09/08 05:06:36;;;;;;;25.00;20.27;;;;;;;15.98;91.38;100061.59;5037747;28;20210;-83
2022/09/08 05:09:04;;;;;;;25.97;20.33;;;;;;;15.98;91.39;100053.56;5032598;28;20226;-83
2022/09/08 05:11:33;;;;;;;25.07;19.23;;;;;;;15.99;91.82;100046.34;5033688;28;20649;-84
2022/09/08 05:14:00;;;;;;;24.37;20.50;;;;;;;16.00;92.03;100042.66;5032578;28;20206;-84
2022/09/08 05:16:28;;;;;;;26.77;21.63;;;;;;;16.01;92.09;100051.56;5040391;28;20220;-84
2022/09/08 05:18:57;;;;;;;25.50;19.93;;;;;;;16.01;92.13;100054.25;5036143;28;20317;-85
2022/09/08 05:21:24;;;;;;;26.83;20.87;;;;;;;16.02;92.50;100055.94;5036388;28;20202;-84
2022/09/08 05:23:52;;;;;;;24.40;19.93;;;;;;;16.02;92.72;100053.25;5037242;28;20227;-84
2022/09/08 05:26:20;;;;;;;21.77;18.77;;;;;;;16.05;92.96;100047.59;5038315;28;20199;-84
2022/09/08 05:28:48;;;;;;;19.13;17.03;;;;;;;16.07;92.83;100053.69;5032848;28;20217;-84
2022/09/08 05:31:24;;;;;;;19.43;16.70;;;;;;;16.07;93.21;100053.69;5035636;28;20207;-84
2022/09/08 05:33:51;;;;;;;21.40;17.43;;;;;;;16.10;93.28;100058.75;5036030;28;20319;-84
2022/09/08 05:36:21;;;;;;;20.33;18.17;;;;;;;16.12;93.32;100052.22;5035312;28;20238;-83
2022/09/08 05:38:48;;;;;;;25.63;18.37;;;;;;;16.14;92.98;100047.56;5031257;28;20239;-83
2022/09/08 05:41:15;;;;;;;19.93;17.67;;;;;;;16.19;93.06;100045.28;5032565;28;20214;-83
2022/09/08 05:43:42;;;;;;;22.97;18.43;;;;;;;16.21;93.20;100045.13;5032258;28;20294;-84
2022/09/08 05:46:11;;;;;;;26.67;18.50;;;;;;;16.25;92.97;100055.44;5032182;28;20282;-84
2022/09/08 05:48:37;;;;;;;22.27;17.70;;;;;;;16.27;93.00;100052.63;5031815;28;20212;-84
2022/09/08 05:51:08;;;;;;;22.07;17.90;;;;;;;16.31;93.00;100052.16;5032825;28;20203;-83
2022/09/08 05:53:35;;;;;;;25.80;19.27;;;;;;;16.33;92.73;100035.88;5031003;28;20259;-84
2022/09/08 05:56:04;;;;;;;22.03;17.93;;;;;;;16.37;92.72;100045.34;5037384;28;20206;-84
2022/09/08 05:58:31;;;;;;;25.73;19.03;;;;;;;16.40;92.66;100045.03;5036489;28;20265;-84
2022/09/08 06:00:59;;;;;;;22.73;19.03;;;;;;;16.42;92.62;100039.53;5031388;28;20620;-84
2022/09/08 06:03:27;;;;;;;23.23;18.57;;;;;;;16.44;92.41;100041.06;5032035;28;20207;-83
2022/09/08 06:05:55;;;;;;;23.57;18.23;;;;;;;16.46;92.39;100044.47;5027805;28;20260;-83
2022/09/08 06:08:22;;;;;;;27.87;19.27;;;;;;;16.47;92.13;100048.84;5038574;28;20214;-83
2022/09/08 06:10:50;;;;;;;23.10;19.13;;;;;;;16.47;92.37;100042.63;5032674;28;20227;-83
2022/09/08 06:13:17;;;;;;;20.37;18.17;;;;;;;16.47;92.17;100050.69;5039422;28;20251;-84
2022/09/08 06:15:44;;;;;;;20.40;17.77;;;;;;;16.47;92.00;100062.28;5032673;28;20646;-84
2022/09/08 06:18:10;;;;;;;18.93;17.13;;;;;;;16.47;92.15;100062.28;5028661;28;20242;-83
2022/09/08 06:20:38;;;;;;;18.57;16.67;;;;;;;16.47;92.29;100054.22;5029445;28;20232;-83
2022/09/08 06:23:05;;;;;;;17.57;15.77;;;;;;;16.47;92.19;100056.06;5029053;28;20211;-83
2022/09/08 06:25:31;;;;;;;19.07;17.10;;;;;;;16.48;92.40;100045.13;5032161;28;20665;-83
2022/09/08 06:28:02;;;;;;;19.67;16.53;;;;;;;16.50;92.63;100055.72;5031991;28;20666;-84
2022/09/08 06:30:28;;;;;;;18.13;16.30;;;;;;;16.52;93.13;100043.00;5031690;28;20218;-83
2022/09/08 06:32:59;;;;;;;19.53;16.80;;;;;;;16.57;93.23;100043.41;5030370;28;20606;-83
2022/09/08 06:35:29;;;;;;;18.17;16.17;;;;;;;16.60;93.19;100040.41;5030267;28;20205;-83
2022/09/08 06:38:00;;;;;;;20.63;16.03;;;;;;;16.63;93.34;100043.69;5026967;28;20786;-83
2022/09/08 06:40:29;;;;;;;18.07;16.17;;;;;;;16.66;93.36;100043.38;5038215;28;20261;-83
2022/09/08 06:43:02;;;;;;;20.73;17.27;;;;;;;16.69;93.31;100036.84;5031429;28;20678;-83
2022/09/08 06:45:34;;;;;;;19.03;16.80;;;;;;;16.73;93.47;100027.47;5030117;28;20228;-84
2022/09/08 06:48:25;;;;;;;19.47;16.47;;;;;;;16.76;93.76;100029.03;5033514;28;20259;-84
2022/09/08 06:51:09;;;;;;;19.83;17.43;;;;;;;16.80;93.79;100025.88;5025818;28;20237;-84
2022/09/08 06:53:42;;;;;;;21.33;17.77;;;;;;;16.84;93.85;100015.69;5022612;28;20201;-84
2022/09/08 06:56:21;;;;;;;19.23;16.90;;;;;;;16.86;93.83;100019.03;5030620;28;20807;-83
2022/09/08 06:58:48;;;;;;;21.70;18.70;;;;;;;16.90;93.96;100020.44;5031187;28;20217;-83
2022/09/08 07:01:20;;;;;;;24.33;19.10;;;;;;;16.93;94.18;100022.81;5027352;28;20222;-84
2022/09/08 07:04:05;;;;;;;19.67;17.47;;;;;;;16.95;94.04;100015.44;5030538;28;20213;-84
2022/09/08 07:06:36;;;;;;;21.43;17.53;;;;;;;16.98;94.04;100015.13;5030353;28;20208;-83
2022/09/08 07:09:14;;;;;;;22.37;18.87;;;;;;;17.02;94.14;100015.69;5030625;28;20232;-82
2022/09/08 07:11:50;;;;;;;27.60;20.10;;;;;;;17.04;94.26;100013.66;5026851;28;20204;-83
2022/09/08 07:14:59;;;;;;;27.93;20.77;;;;;;;17.08;94.24;100015.91;5027433;28;20209;-83
2022/09/08 07:17:30;;;;;;;29.17;21.20;;;;;;;17.13;94.36;100015.44;4968448;28;20710;-83
2022/09/08 07:19:58;;;;;;;27.60;21.07;;;;;;;17.14;94.36;100012.59;5020279;28;20233;-83
2022/09/08 07:22:32;;;;;;;31.90;21.57;;;;;;;17.18;94.51;100015.84;5030999;28;20657;-83
2022/09/08 07:25:10;;;;;;;25.83;19.80;;;;;;;17.22;94.63;100014.50;5030037;28;20232;-84
2022/09/08 07:27:39;;;;;;;27.60;20.90;;;;;;;17.29;94.72;100004.81;5032900;28;20219;-83
2022/09/08 07:30:06;;;;;;;25.77;20.17;;;;;;;17.33;95.04;99998.97;5040612;28;20224;-83
2022/09/08 07:32:36;;;;;;;27.73;19.30;;;;;;;17.37;94.64;99991.44;5033482;28;20214;-84
2022/09/08 07:35:06;;;;;;;24.33;19.10;;;;;;;17.42;94.66;99989.09;5034576;28;20211;-83
2022/09/08 07:37:42;;;;;;;24.53;20.20;;;;;;;17.47;94.78;99980.56;5034525;28;20214;-83
2022/09/08 07:40:18;;;;;;;21.40;19.10;;;;;;;17.54;94.77;99984.31;5033035;28;20230;-83
2022/09/08 07:42:49;;;;;;;29.87;19.23;;;;;;;17.60;94.77;99987.22;5034665;28;20198;-83
2022/09/08 07:45:16;;;;;;;27.40;19.87;;;;;;;17.67;94.80;99980.22;5032914;28;20207;-84
2022/09/08 07:48:03;;;;;;;27.77;20.70;;;;;;;17.76;94.69;99982.97;5034965;28;20594;-84
2022/09/08 07:53:32;;;;;;;20.03;18.00;;;;;;;17.89;94.77;99995.00;5032615;28;20605;-83
2022/09/08 07:56:08;;;;;;;20.47;16.90;;;;;;;17.94;94.50;100003.44;5032512;28;20225;-84
2022/09/08 07:58:43;;;;;;;18.53;14.43;;;;;;;17.99;94.29;99997.56;5032715;28;20211;-83
2022/09/08 08:01:16;;;;;;;15.80;13.80;;;;;;;18.06;94.46;99997.78;5033984;28;20205;-83
2022/09/08 08:03:53;;;;;;;14.13;12.73;;;;;;;18.09;94.32;99994.78;5033905;28;20208;-83
2022/09/08 08:06:32;;;;;;;14.67;12.00;;;;;;;18.15;94.13;99996.81;5032297;28;20206;-83
2022/09/08 08:09:06;;;;;;;11.23;10.07;;;;;;;18.21;93.82;99990.78;5037532;28;20211;-83
2022/09/08 08:11:39;;;;;;;9.33;8.53;;;;;;;18.26;93.62;99994.69;5033283;28;20209;-83
2022/09/08 08:14:16;;;;;;;9.13;8.23;;;;;;;18.33;93.28;99993.00;5024927;28;20216;-83
2022/09/08 08:16:55;;;;;;;9.10;8.20;;;;;;;18.39;92.70;99991.53;5032828;28;20213;-83
2022/09/08 08:19:47;;;;;;;9.70;8.37;;;;;;;18.43;91.68;99992.06;5034223;28;20623;-84
2022/09/08 08:22:19;;;;;;;11.03;9.37;;;;;;;18.47;90.98;99994.22;5032812;28;20208;-83
2022/09/08 08:24:54;;;;;;;8.43;7.73;;;;;;;18.53;90.41;99995.44;5033296;28;20235;-83
2022/09/08 08:27:30;;;;;;;10.17;6.90;;;;;;;18.58;89.87;99999.34;5032143;28;20236;-84
2022/09/08 08:30:06;;;;;;;7.70;6.73;;;;;;;18.64;89.13;99997.84;5032903;28;20232;-84
2022/09/08 08:32:37;;;;;;;7.33;6.60;;;;;;;18.67;88.41;100006.47;5033496;28;20331;-84
2022/09/08 08:35:12;;;;;;;7.80;7.00;;;;;;;18.69;88.10;99995.50;5026491;28;20204;-83
2022/09/08 08:37:41;;;;;;;6.50;5.77;;;;;;;18.75;87.70;100005.66;5022833;28;20287;-84
2022/09/08 08:40:32;;;;;;;6.53;5.83;;;;;;;18.77;87.37;99992.84;5033182;28;20229;-83
2022/09/08 08:43:21;;;;;;;6.10;5.57;;;;;;;18.81;86.96;99987.97;5020990;28;20214;-84
2022/09/08 08:46:01;;;;;;;5.90;5.40;;;;;;;18.82;86.35;99990.47;5027189;28;20710;-85
2022/09/08 08:48:44;;;;;;;6.07;5.57;;;;;;;18.82;85.83;99981.53;5033494;28;20215;-84
2022/09/08 08:51:34;;;;;;;6.60;5.90;;;;;;;18.81;85.38;99980.69;5033023;28;20211;-84
2022/09/08 08:54:29;;;;;;;6.37;5.77;;;;;;;18.82;85.29;99976.97;5029114;28;20662;-83
2022/09/08 08:57:01;;;;;;;6.10;5.50;;;;;;;18.82;84.83;99976.13;5028593;28;20227;-84
2022/09/08 08:59:58;;;;;;;6.43;5.83;;;;;;;18.85;84.89;99975.81;5031012;28;20267;-85
2022/09/08 09:02:40;;;;;;;5.73;5.23;;;;;;;18.85;84.75;99981.22;5032175;28;20263;-83
2022/09/08 09:05:38;;;;;;;5.93;5.43;;;;;;;18.88;84.70;99978.19;5028775;28;20217;-83
2022/09/08 09:08:34;;;;;;;6.57;5.80;;;;;;;18.91;84.48;99975.16;5031099;28;20223;-84
2022/09/08 09:11:13;;;;;;;5.70;5.17;;;;;;;18.94;84.52;99991.03;5027113;28;20311;-83
2022/09/08 09:14:11;;;;;;;6.40;5.90;;;;;;;18.98;84.62;99992.38;5032737;28;20234;-83
2022/09/08 09:17:04;;;;;;;5.27;4.77;;;;;;;19.03;84.48;100001.63;5027998;28;20205;-85
2022/09/08 09:19:54;;;;;;;5.63;3.73;;;;;;;19.02;83.59;100001.81;5038142;28;20228;-84
2022/09/08 09:22:29;;;;;;;5.00;4.50;;;;;;;19.01;82.67;100009.06;5037734;28;20213;-85
2022/09/08 09:25:13;;;;;;;8.23;6.30;;;;;;;19.02;82.31;100004.50;5036062;28;20228;-85
2022/09/08 09:27:45;;;;;;;5.50;4.87;;;;;;;19.02;81.74;100004.50;5034728;28;20199;-84
2022/09/08 09:30:22;;;;;;;5.87;4.47;;;;;;;19.00;81.59;100001.97;5035706;28;20228;-84
2022/09/08 09:33:37;;;;;;;4.90;4.40;;;;;;;19.02;81.27;100009.91;5037310;28;20204;-84
2022/09/08 09:36:43;;;;;;;4.47;4.13;;;;;;;18.99;81.07;100010.22;5032552;28;20209;-85
2022/09/08 09:39:41;;;;;;;4.97;4.23;;;;;;;18.99;81.06;100007.53;5015823;28;20235;-84
2022/09/08 09:42:38;;;;;;;4.70;4.30;;;;;;;18.97;80.82;100018.53;5007736;28;20209;-84
2022/09/08 09:45:41;;;;;;;4.57;4.10;;;;;;;18.98;80.98;100011.28;5032817;28;20240;-85
2022/09/08 09:48:41;;;;;;;5.33;4.80;;;;;;;19.00;81.30;100014.63;5037920;28;20586;-85
2022/09/08 09:51:24;;;;;;;5.00;4.60;;;;;;;19.03;81.29;100017.84;5034712;28;20681;-84
2022/09/08 09:54:17;;;;;;;4.83;4.43;;;;;;;19.04;81.29;100013.28;5035992;28;20223;-84
2022/09/08 09:57:20;;;;;;;5.60;5.10;;;;;;;19.04;81.32;100010.59;5030467;28;20640;-83
2022/09/08 10:00:11;;;;;;;5.07;4.57;;;;;;;19.06;81.65;100022.06;5033744;28;20365;-83
2022/09/08 10:03:14;;;;;;;5.67;4.43;;;;;;;19.06;81.67;100022.06;5032941;28;20213;-84
2022/09/08 10:06:07;;;;;;;5.17;4.67;;;;;;;19.04;81.59;100024.91;5030816;28;20233;-84
2022/09/08 10:08:59;;;;;;;4.90;4.50;;;;;;;19.06;81.91;100017.50;5036618;28;20213;-84
2022/09/08 10:12:08;;;;;;;3.87;3.57;;;;;;;19.07;82.01;100015.66;5013774;28;20204;-84
2022/09/08 10:15:22;;;;;;;4.73;3.30;;;;;;;19.06;81.89;100013.97;4992251;28;20274;-85
2022/09/08 10:18:15;;;;;;;4.23;3.40;;;;;;;19.03;81.91;100012.44;5003330;28;20676;-85
2022/09/08 10:21:17;;;;;;;3.70;3.40;;;;;;;19.02;82.05;100005.34;5009063;28;20234;-85
2022/09/08 10:24:16;;;;;;;3.70;3.40;;;;;;;19.03;82.00;100000.78;5031970;28;20214;-84
2022/09/08 10:27:19;;;;;;;3.83;3.50;;;;;;;19.02;82.27;99996.41;5025378;28;20229;-85
2022/09/08 10:30:18;;;;;;;5.27;3.63;;;;;;;19.00;82.23;99996.56;5029388;28;20222;-85
2022/09/08 10:33:17;;;;;;;3.43;3.13;;;;;;;18.98;82.58;100000.47;5029730;28;20208;-85
2022/09/08 10:35:46;;;;;;;4.47;3.00;;;;;;;18.96;82.67;99995.25;5026037;28;20208;-84
2022/09/08 10:38:47;;;;;;;4.17;3.37;;;;;;;18.94;82.73;99991.88;5034762;28;20212;-84
2022/09/08 10:42:04;;;;;;;3.97;3.17;;;;;;;18.91;82.88;99994.03;5030316;28;20226;-84
2022/09/08 10:44:50;;;;;;;3.70;3.30;;;;;;;18.89;83.22;99991.50;5029898;28;20214;-84
2022/09/08 10:47:52;;;;;;;3.60;3.30;;;;;;;18.89;83.16;100004.16;5029207;28;20683;-83
2022/09/08 10:50:21;;;;;;;4.80;3.60;;;;;;;18.87;83.56;100001.63;5031578;28;20581;-84
2022/09/08 10:53:00;;;;;;;4.60;3.43;;;;;;;18.86;84.10;100004.47;5024700;28;20692;-83
2022/09/08 10:55:49;;;;;;;5.03;4.20;;;;;;;18.85;83.82;100009.03;5030051;28;20604;-83
2022/09/08 10:58:35;;;;;;;4.13;3.80;;;;;;;18.84;84.30;100010.03;5028231;28;20207;-85
2022/09/08 11:01:20;;;;;;;4.83;4.43;;;;;;;18.84;84.71;100004.66;5028102;28;20235;-84
2022/09/08 11:04:17;;;;;;;4.83;3.90;;;;;;;18.86;84.82;99999.09;5033226;28;20215;-84
2022/09/08 11:07:07;;;;;;;4.50;3.63;;;;;;;18.84;84.92;100006.50;5029320;28;20699;-84
2022/09/08 11:09:50;;;;;;;3.83;3.53;;;;;;;18.81;84.97;100002.28;5034283;28;20234;-84
2022/09/08 11:12:43;;;;;;;4.03;3.63;;;;;;;18.82;85.31;100009.34;5035062;28;20228;-84
2022/09/08 11:15:47;;;;;;;3.57;3.27;;;;;;;18.83;85.40;100021.00;5033897;28;21324;-84
2022/09/08 11:18:27;;;;;;;4.73;3.90;;;;;;;18.84;85.49;100025.38;5033766;28;20247;-84
2022/09/08 11:20:58;;;;;;;4.03;3.73;;;;;;;18.84;85.45;100022.69;5037164;28;20228;-84
2022/09/08 11:23:35;;;;;;;4.00;3.70;;;;;;;18.82;85.54;100013.91;5042546;28;20580;-85
2022/09/08 11:26:28;;;;;;;4.80;3.90;;;;;;;18.81;85.72;100020.34;5034197;28;20225;-84
2022/09/08 11:29:02;;;;;;;4.30;3.90;;;;;;;18.82;86.03;100013.91;5031845;28;20211;-84
2022/09/08 11:31:41;;;;;;;4.87;4.00;;;;;;;18.84;86.22;100020.00;5033029;28;20196;-84
2022/09/08 11:34:25;;;;;;;3.83;3.57;;;;;;;18.85;86.52;100008.19;5036726;28;20208;-84
2022/09/08 11:37:14;;;;;;;4.53;3.63;;;;;;;18.86;86.68;100013.41;5032957;28;20211;-83
2022/09/08 11:39:55;;;;;;;4.13;3.73;;;;;;;18.88;86.57;100018.66;5033127;28;20227;-83
2022/09/08 11:42:58;;;;;;;4.00;3.60;;;;;;;18.87;86.79;100012.41;5028033;28;20227;-84
2022/09/08 11:45:37;;;;;;;4.03;3.70;;;;;;;18.89;86.75;100020.34;5025127;28;20221;-84
2022/09/08 11:48:26;;;;;;;4.03;3.73;;;;;;;18.90;86.91;100016.63;5033093;28;20215;-84
2022/09/08 11:51:03;;;;;;;3.80;3.50;;;;;;;18.92;87.06;100014.63;5027293;28;20233;-84
2022/09/08 11:54:02;;;;;;;3.77;3.47;;;;;;;18.92;87.04;100014.63;5033167;28;20770;-84
2022/09/08 11:56:55;;;;;;;3.83;3.43;;;;;;;18.93;86.83;100016.31;5032909;28;20676;-83
2022/09/08 11:59:35;;;;;;;3.70;3.27;;;;;;;18.91;86.96;100013.78;5033640;28;20235;-83
2022/09/08 12:02:19;;;;;;;4.23;3.83;;;;;;;18.89;86.72;100013.09;5029366;28;20197;-84
2022/09/08 12:05:01;;;;;;;4.37;4.03;;;;;;;18.89;86.83;100025.75;5032097;28;20205;-83
2022/09/08 12:07:42;;;;;;;3.97;3.60;;;;;;;18.89;87.00;100021.19;5029524;28;20550;-83